createdAt,value
2022-12-03T00:01:24.031Z,3.69
2022-12-03T00:04:26.670Z,3.59
2022-12-03T00:07:29.393Z,3.54
2022-12-03T00:10:32.140Z,3.41
2022-12-03T00:13:38.473Z,3.35
2022-12-03T00:16:46.160Z,3.35
2022-12-03T00:19:53.634Z,3.30
2022-12-03T00:22:58.616Z,3.26
2022-12-03T00:26:03.562Z,3.29
2022-12-03T00:29:10.527Z,3.37
2022-12-03T00:32:15.062Z,3.39
2022-12-03T00:35:20.361Z,3.36
2022-12-03T00:38:25.182Z,3.44
2022-12-03T00:41:32.358Z,3.45
2022-12-03T00:44:38.585Z,3.46
2022-12-03T00:47:43.461Z,3.52
2022-12-03T00:50:48.111Z,3.56
2022-12-03T00:53:52.923Z,3.61
2022-12-03T00:56:57.679Z,3.65
2022-12-03T01:00:05.407Z,3.71
2022-12-03T01:03:10.857Z,3.71
2022-12-03T01:06:15.362Z,3.72
2022-12-03T01:09:19.736Z,3.73
2022-12-03T01:12:24.652Z,3.74
2022-12-03T01:15:33.767Z,3.71
2022-12-03T01:18:38.574Z,3.75
2022-12-03T01:21:43.715Z,3.71
2022-12-03T01:24:48.357Z,3.75
2022-12-03T01:27:53.410Z,3.77
2022-12-03T01:31:27.547Z,3.78
2022-12-03T01:34:32.224Z,3.81
2022-12-03T01:37:37.196Z,3.82
2022-12-03T01:40:41.898Z,3.84
2022-12-03T01:43:46.887Z,3.87
2022-12-03T01:46:55.314Z,3.92
2022-12-03T01:50:05.171Z,4.00
2022-12-03T01:53:13.567Z,4.04
2022-12-03T01:56:19.934Z,4.03
2022-12-03T01:59:31.819Z,4.07
2022-12-03T02:02:38.209Z,4.01
2022-12-03T02:05:43.168Z,4.00
2022-12-03T02:08:50.327Z,4.02
2022-12-03T02:11:54.809Z,4.03
2022-12-03T02:14:59.620Z,4.02
2022-12-03T02:18:05.751Z,3.98
2022-12-03T02:21:16.491Z,3.96
2022-12-03T02:24:30.365Z,4.09
2022-12-03T02:27:36.525Z,4.10
2022-12-03T02:30:41.939Z,4.11
2022-12-03T02:33:46.916Z,4.13
2022-12-03T02:36:51.323Z,4.14
2022-12-03T02:39:58.718Z,4.19
2022-12-03T02:43:07.939Z,4.19
2022-12-03T02:46:12.882Z,4.21
2022-12-03T02:49:17.847Z,4.22
2022-12-03T02:52:22.875Z,4.25
2022-12-03T02:55:33.309Z,4.28
2022-12-03T02:58:44.189Z,4.27
2022-12-03T03:01:48.947Z,4.32
2022-12-03T03:04:53.762Z,4.35
2022-12-03T03:08:01.096Z,4.36
2022-12-03T03:11:06.208Z,4.37
2022-12-03T03:14:12.328Z,4.33
2022-12-03T03:17:17.522Z,4.28
2022-12-03T03:20:22.546Z,4.28
2022-12-03T03:23:27.618Z,4.27
2022-12-03T03:26:32.028Z,4.23
2022-12-03T03:29:38.693Z,4.15
2022-12-03T03:32:44.216Z,4.16
2022-12-03T03:35:50.572Z,4.14
2022-12-03T03:38:55.756Z,4.09
2022-12-03T03:42:00.764Z,4.12
2022-12-03T03:45:08.380Z,4.19
2022-12-03T03:48:15.209Z,4.26
2022-12-03T03:51:21.552Z,4.29
2022-12-03T03:54:26.823Z,4.35
2022-12-03T03:57:31.912Z,4.37
2022-12-03T04:00:39.630Z,4.44
2022-12-03T04:03:44.730Z,4.44
2022-12-03T04:06:49.080Z,4.50
2022-12-03T04:09:53.512Z,4.47
2022-12-03T04:12:56.890Z,4.50
2022-12-03T04:16:03.478Z,4.50
2022-12-03T04:19:08.117Z,4.49
2022-12-03T04:22:29.362Z,4.50
2022-12-03T04:25:50.961Z,4.50
2022-12-03T04:28:55.805Z,4.49
2022-12-03T04:32:18.970Z,4.52
2022-12-03T04:35:40.350Z,4.47
2022-12-03T04:38:45.012Z,4.53
2022-12-03T04:41:49.453Z,4.50
2022-12-03T04:44:56.288Z,4.46
2022-12-03T04:48:02.414Z,4.47
2022-12-03T04:51:07.308Z,4.49
2022-12-03T04:54:12.029Z,4.41
2022-12-03T04:57:16.723Z,4.40
2022-12-03T05:00:21.578Z,4.37
2022-12-03T05:03:27.640Z,4.36
2022-12-03T05:06:32.138Z,4.36
2022-12-03T05:09:36.812Z,4.39
2022-12-03T05:12:41.570Z,4.43
2022-12-03T05:15:46.205Z,4.44
2022-12-03T05:18:52.058Z,4.42
2022-12-03T05:21:56.348Z,4.42
2022-12-03T05:25:01.049Z,4.45
2022-12-03T05:28:05.879Z,4.48
2022-12-03T05:31:10.651Z,4.40
2022-12-03T05:34:17.263Z,4.44
2022-12-03T05:37:21.983Z,4.36
2022-12-03T05:40:27.077Z,4.39
2022-12-03T05:43:30.495Z,4.36
2022-12-03T05:46:35.191Z,4.35
2022-12-03T05:49:41.520Z,4.36
2022-12-03T05:52:46.343Z,4.37
2022-12-03T05:55:51.648Z,4.37
2022-12-03T05:58:57.243Z,4.37
2022-12-03T06:02:02.110Z,4.46
2022-12-03T06:05:09.754Z,4.34
2022-12-03T06:08:14.208Z,4.37
2022-12-03T06:11:18.820Z,4.40
2022-12-03T06:14:23.068Z,4.39
2022-12-03T06:17:27.594Z,4.40
2022-12-03T06:20:34.098Z,4.46
2022-12-03T06:23:44.972Z,4.45
2022-12-03T06:26:49.371Z,4.48
2022-12-03T06:29:53.724Z,4.52
2022-12-03T06:32:58.305Z,4.51
2022-12-03T06:36:05.126Z,4.51
2022-12-03T06:39:09.478Z,4.55
2022-12-03T06:42:13.694Z,4.54
2022-12-03T06:45:18.386Z,4.56
2022-12-03T06:48:23.078Z,4.58
2022-12-03T06:51:29.058Z,4.58
2022-12-03T06:54:33.389Z,4.56
2022-12-03T06:57:38.128Z,4.57
2022-12-03T07:00:42.386Z,4.55
2022-12-03T07:03:47.048Z,4.53
2022-12-03T07:06:54.804Z,4.48
2022-12-03T07:09:59.716Z,4.48
2022-12-03T07:13:04.289Z,4.52
2022-12-03T07:16:12.111Z,4.56
2022-12-03T07:19:17.243Z,4.58
2022-12-03T07:22:23.464Z,4.63
2022-12-03T07:25:28.126Z,4.65
2022-12-03T07:28:32.760Z,4.65
2022-12-03T07:31:37.136Z,4.58
2022-12-03T07:34:42.428Z,4.55
2022-12-03T07:37:50.322Z,4.55
2022-12-03T07:40:55.166Z,4.55
2022-12-03T07:43:59.912Z,4.51
2022-12-03T07:47:04.665Z,4.56
2022-12-03T07:50:10.846Z,4.61
2022-12-03T07:53:17.585Z,4.58
2022-12-03T07:56:25.377Z,4.55
2022-12-03T07:59:30.637Z,4.59
2022-12-03T08:02:35.823Z,4.63
2022-12-03T08:05:49.373Z,4.58
2022-12-03T08:09:02.341Z,4.64
2022-12-03T08:12:14.983Z,4.68
2022-12-03T08:15:26.030Z,4.72
2022-12-03T08:18:31.666Z,4.73
2022-12-03T08:21:38.756Z,4.75
2022-12-03T08:24:45.272Z,4.73
2022-12-03T08:28:45.983Z,4.70
2022-12-03T08:31:55.168Z,4.68
2022-12-03T08:35:00.140Z,4.65
2022-12-03T08:38:12.117Z,4.67
2022-12-03T08:41:40.326Z,4.62
2022-12-03T08:44:45.125Z,4.61
2022-12-03T08:47:50.060Z,4.64
2022-12-03T08:50:57.379Z,4.66
2022-12-03T08:54:09.773Z,4.64
2022-12-03T08:57:30.118Z,4.68
2022-12-03T09:00:34.760Z,4.78
2022-12-03T09:03:40.727Z,4.83
2022-12-03T09:06:45.550Z,4.80
2022-12-03T09:09:51.025Z,4.80
2022-12-03T09:12:58.500Z,4.82
2022-12-03T09:16:03.606Z,4.78
2022-12-03T09:19:08.435Z,4.75
2022-12-03T09:22:13.688Z,4.70
2022-12-03T09:25:19.190Z,4.67
2022-12-03T09:28:25.823Z,4.64
2022-12-03T09:31:30.941Z,4.59
2022-12-03T09:34:35.534Z,4.55
2022-12-03T09:37:40.583Z,4.53
2022-12-03T09:40:45.469Z,4.47
2022-12-03T09:44:10.801Z,4.38
2022-12-03T09:47:17.353Z,4.46
2022-12-03T09:50:23.810Z,4.40
2022-12-03T09:53:30.370Z,4.31
2022-12-03T09:56:37.829Z,4.31
2022-12-03T09:59:44.179Z,4.38
2022-12-03T10:02:50.664Z,4.46
2022-12-03T10:05:56.781Z,4.52
2022-12-03T10:09:01.753Z,4.52
2022-12-03T10:12:09.963Z,4.39
2022-12-03T10:15:18.598Z,4.35
2022-12-03T10:18:30.480Z,4.29
2022-12-03T10:21:39.830Z,4.30
2022-12-03T10:24:45.443Z,4.16
2022-12-03T10:28:03.144Z,4.10
2022-12-03T10:31:10.706Z,4.12
2022-12-03T10:34:26.944Z,4.09
2022-12-03T10:37:32.312Z,4.11
2022-12-03T10:40:41.067Z,4.14
2022-12-03T10:43:46.106Z,4.16
2022-12-03T10:47:10.707Z,4.13
2022-12-03T10:50:23.467Z,4.14
2022-12-03T10:53:32.015Z,4.08
2022-12-03T10:56:37.221Z,4.14
2022-12-03T10:59:43.700Z,4.12
2022-12-03T11:03:05.225Z,3.95
2022-12-03T11:06:15.695Z,3.96
2022-12-03T11:09:27.188Z,3.98
2022-12-03T11:12:35.252Z,3.92
2022-12-03T11:15:47.474Z,3.87
2022-12-03T11:19:04.435Z,3.91
2022-12-03T11:22:41.782Z,3.95
2022-12-03T11:25:50.917Z,3.93
2022-12-03T11:28:56.939Z,3.91
2022-12-03T11:32:01.973Z,3.89
2022-12-03T11:35:14.922Z,3.91
2022-12-03T11:38:48.899Z,3.82
2022-12-03T11:42:30.810Z,3.84
2022-12-03T11:45:38.338Z,3.84
2022-12-03T11:48:46.367Z,3.88
2022-12-03T11:51:54.893Z,3.82
2022-12-03T11:55:04.527Z,3.74
2022-12-03T11:58:19.570Z,3.76
2022-12-03T12:01:38.945Z,3.80
2022-12-03T12:04:48.585Z,3.92
2022-12-03T12:07:55.227Z,3.93
2022-12-03T12:11:00.970Z,4.01
2022-12-03T12:14:06.742Z,3.98
2022-12-03T12:17:36.301Z,3.92
2022-12-03T12:20:41.173Z,3.92
2022-12-03T12:23:47.767Z,3.88
2022-12-03T12:26:53.303Z,3.92
2022-12-03T12:30:00.540Z,3.98
2022-12-03T12:33:16.263Z,3.94
2022-12-03T12:36:21.187Z,4.03
2022-12-03T12:39:29.004Z,3.91
2022-12-03T12:42:36.248Z,3.90
2022-12-03T12:45:43.631Z,3.93
2022-12-03T12:48:48.636Z,3.92
2022-12-03T12:51:53.685Z,3.90
2022-12-03T12:55:04.851Z,3.94
2022-12-03T12:58:16.131Z,3.95
2022-12-03T13:01:26.068Z,3.99
2022-12-03T13:04:33.185Z,3.98
2022-12-03T13:07:38.044Z,3.93
2022-12-03T13:10:44.091Z,3.83
2022-12-03T13:13:49.305Z,3.76
2022-12-03T13:16:57.045Z,3.82
2022-12-03T13:20:07.884Z,3.73
2022-12-03T13:23:28.812Z,3.72
2022-12-03T13:26:42.057Z,3.75
2022-12-03T13:29:48.158Z,3.82
2022-12-03T13:32:55.870Z,3.83
2022-12-03T13:35:59.938Z,3.69
2022-12-03T13:39:11.237Z,3.61
2022-12-03T13:42:42.342Z,3.48
2022-12-03T13:45:49.696Z,3.53
2022-12-03T13:48:58.686Z,3.56
2022-12-03T13:52:11.153Z,3.72
2022-12-03T13:55:24.532Z,3.78
2022-12-03T13:58:30.985Z,3.78
2022-12-03T14:01:36.550Z,3.77
2022-12-03T14:04:41.946Z,3.84
2022-12-03T14:07:46.528Z,3.82
2022-12-03T14:10:55.552Z,3.86
2022-12-03T14:14:07.939Z,3.90
2022-12-03T14:17:14.566Z,3.84
2022-12-03T14:20:19.938Z,3.91
2022-12-03T14:23:25.754Z,3.84
2022-12-03T14:26:30.545Z,3.84
2022-12-03T14:29:36.963Z,3.91
2022-12-03T14:32:43.058Z,3.87
2022-12-03T14:35:47.633Z,3.84
2022-12-03T14:38:52.406Z,3.82
2022-12-03T14:42:15.626Z,3.75
2022-12-03T14:45:23.366Z,3.64
2022-12-03T14:48:29.973Z,3.58
2022-12-03T14:51:34.621Z,3.57
2022-12-03T14:54:42.893Z,3.58
2022-12-03T14:57:47.783Z,3.57
2022-12-03T15:00:54.166Z,3.59
2022-12-03T15:03:58.816Z,3.57
2022-12-03T15:07:03.962Z,3.54
2022-12-03T15:10:09.691Z,3.56
2022-12-03T15:13:14.726Z,3.56
2022-12-03T15:16:22.888Z,3.59
2022-12-03T15:19:27.709Z,3.56
2022-12-03T15:22:32.574Z,3.58
2022-12-03T15:25:38.013Z,3.65
2022-12-03T15:28:47.928Z,3.65
2022-12-03T15:31:54.761Z,3.67
2022-12-03T15:35:00.277Z,3.66
2022-12-03T15:38:05.427Z,3.61
2022-12-03T15:41:29.526Z,3.74
2022-12-03T15:44:37.909Z,3.55
2022-12-03T15:47:44.988Z,3.52
2022-12-03T15:50:50.657Z,3.58
2022-12-03T15:53:55.745Z,3.57
2022-12-03T15:57:00.558Z,3.50
2022-12-03T16:00:06.710Z,3.50
2022-12-03T16:03:13.290Z,3.54
2022-12-03T16:06:20.064Z,3.54
2022-12-03T16:09:27.389Z,3.55
2022-12-03T16:12:32.446Z,3.65
2022-12-03T16:15:36.992Z,3.63
2022-12-03T16:18:44.632Z,3.63
2022-12-03T16:21:49.494Z,3.62
2022-12-03T16:24:54.370Z,3.67
2022-12-03T16:27:59.524Z,3.67
2022-12-03T16:31:05.077Z,3.66
2022-12-03T16:34:13.452Z,3.48
2022-12-03T16:37:18.126Z,3.44
2022-12-03T16:40:22.638Z,3.42
2022-12-03T16:43:27.881Z,3.45
2022-12-03T16:46:32.983Z,3.40
2022-12-03T16:49:39.371Z,3.36
2022-12-03T16:52:43.644Z,3.22
2022-12-03T16:55:48.151Z,3.17
2022-12-03T16:58:53.781Z,3.09
2022-12-03T17:01:58.211Z,3.06
2022-12-03T17:05:04.219Z,3.04
2022-12-03T17:08:07.439Z,3.05
2022-12-03T17:11:10.536Z,2.96
2022-12-03T17:14:13.449Z,3.01
2022-12-03T17:17:16.320Z,2.91
2022-12-03T17:20:21.279Z,3.01
2022-12-03T17:23:24.608Z,2.96
2022-12-03T17:26:27.649Z,2.93
2022-12-03T17:29:30.646Z,2.92
2022-12-03T17:32:33.635Z,2.95
2022-12-03T17:35:37.745Z,2.98
2022-12-03T17:38:40.617Z,3.04
2022-12-03T17:41:43.569Z,3.09
2022-12-03T17:44:46.613Z,3.14
2022-12-03T17:47:49.588Z,3.06
2022-12-03T17:50:55.340Z,3.08
2022-12-03T17:53:58.151Z,3.01
2022-12-03T17:57:01.102Z,3.09
2022-12-03T18:00:05.476Z,3.07
2022-12-03T18:03:08.297Z,3.02
2022-12-03T18:06:12.561Z,2.91
2022-12-03T18:09:15.597Z,2.83
2022-12-03T18:12:18.516Z,2.81
2022-12-03T18:15:21.352Z,2.80
2022-12-03T18:18:24.185Z,2.89
2022-12-03T18:21:29.133Z,3.01
2022-12-03T18:24:31.998Z,3.09
2022-12-03T18:27:35.176Z,2.99
2022-12-03T18:30:38.098Z,2.98
2022-12-03T18:33:41.120Z,3.05
2022-12-03T18:36:45.515Z,3.07
2022-12-03T18:39:48.978Z,3.03
2022-12-03T18:42:52.032Z,2.93
2022-12-03T18:45:55.089Z,2.98
2022-12-03T18:48:58.048Z,2.95
2022-12-03T18:52:02.464Z,2.88
2022-12-03T18:55:06.353Z,2.95
2022-12-03T18:58:09.415Z,2.94
2022-12-03T19:01:16.188Z,3.02
2022-12-03T19:04:20.493Z,2.93
2022-12-03T19:07:24.659Z,2.96
2022-12-03T19:10:28.366Z,2.94
2022-12-03T19:13:31.302Z,2.88
2022-12-03T19:16:39.730Z,2.81
2022-12-03T19:19:42.736Z,2.78
2022-12-03T19:22:47.181Z,2.85
2022-12-03T19:25:56.945Z,2.82
2022-12-03T19:28:59.795Z,2.82
2022-12-03T19:32:09.986Z,2.80
2022-12-03T19:35:21.446Z,2.92
2022-12-03T19:38:27.177Z,2.93
2022-12-03T19:41:31.435Z,2.97
2022-12-03T19:44:34.717Z,2.95
2022-12-03T19:47:38.114Z,2.94
2022-12-03T19:50:58.389Z,3.05
2022-12-03T19:54:14.082Z,2.82
2022-12-03T19:57:23.086Z,2.77
2022-12-03T20:00:26.281Z,2.74
2022-12-03T20:03:29.040Z,2.75
2022-12-03T20:06:34.901Z,2.73
2022-12-03T20:09:39.057Z,2.75
2022-12-03T20:12:41.714Z,2.77
2022-12-03T20:15:44.436Z,2.72
2022-12-03T20:18:57.410Z,2.77
2022-12-03T20:22:02.705Z,2.72
2022-12-03T20:25:17.759Z,2.78
2022-12-03T20:28:20.550Z,2.80
2022-12-03T20:31:24.784Z,2.79
2022-12-03T20:34:27.547Z,2.81
2022-12-03T20:37:30.319Z,2.72
2022-12-03T20:40:37.765Z,2.73
2022-12-03T20:43:40.695Z,2.68
2022-12-03T20:46:43.495Z,2.67
2022-12-03T20:49:46.333Z,2.66
2022-12-03T20:53:09.756Z,2.64
2022-12-03T20:56:18.590Z,2.62
2022-12-03T20:59:24.050Z,2.69
2022-12-03T21:02:28.066Z,2.69
2022-12-03T21:05:30.848Z,2.77
2022-12-03T21:08:41.064Z,2.67
2022-12-03T21:11:46.485Z,2.70
2022-12-03T21:14:49.392Z,2.80
2022-12-03T21:17:52.246Z,2.71
2022-12-03T21:20:55.014Z,2.71
2022-12-03T21:23:58.141Z,2.74
2022-12-03T21:27:02.291Z,2.74
2022-12-03T21:30:06.160Z,2.77
2022-12-03T21:33:08.986Z,2.84
2022-12-03T21:36:14.144Z,2.90
2022-12-03T21:39:16.844Z,2.86
2022-12-03T21:42:34.368Z,2.85
2022-12-03T21:45:40.793Z,2.90
2022-12-03T21:48:43.640Z,2.92
2022-12-03T21:51:46.732Z,2.83
2022-12-03T21:54:49.566Z,2.87
2022-12-03T21:57:53.968Z,2.75
2022-12-03T22:00:56.761Z,2.80
2022-12-03T22:03:59.678Z,2.74
2022-12-03T22:07:02.451Z,2.72
2022-12-03T22:10:06.113Z,2.84
2022-12-03T22:13:10.331Z,2.81
2022-12-03T22:16:15.507Z,2.88
2022-12-03T22:19:18.280Z,2.93
2022-12-03T22:22:21.475Z,2.93
2022-12-03T22:25:24.185Z,2.94
2022-12-03T22:28:29.470Z,3.00
2022-12-03T22:31:32.311Z,3.12
2022-12-03T22:34:35.127Z,3.13
2022-12-03T22:37:37.857Z,3.14
2022-12-03T22:40:40.815Z,3.12
2022-12-03T22:43:46.050Z,3.10
2022-12-03T22:46:48.834Z,3.08
2022-12-03T22:49:51.649Z,3.07
2022-12-03T22:52:54.336Z,2.96
2022-12-03T22:55:58.475Z,3.02
2022-12-03T22:59:02.790Z,3.05
2022-12-03T23:02:05.538Z,3.00
2022-12-03T23:05:08.596Z,3.04
2022-12-03T23:08:13.691Z,3.02
2022-12-03T23:11:17.202Z,3.04
2022-12-03T23:14:21.679Z,3.08
2022-12-03T23:17:24.614Z,3.03
2022-12-03T23:20:30.063Z,3.07
2022-12-03T23:23:32.893Z,3.02
2022-12-03T23:26:37.314Z,3.16
2022-12-03T23:29:41.690Z,3.11
2022-12-03T23:32:44.937Z,3.23
2022-12-03T23:35:47.644Z,3.15
2022-12-03T23:38:51.124Z,3.12
2022-12-03T23:41:53.810Z,3.07
2022-12-03T23:44:57.896Z,3.09
2022-12-03T23:48:00.730Z,3.15
2022-12-03T23:51:08.019Z,3.19
2022-12-03T23:54:12.124Z,3.24
2022-12-03T23:57:15.916Z,3.26
